createdAt,value
2024-01-24T00:00:37.527Z,100979.56
2024-01-24T00:03:25.797Z,100975.86
2024-01-24T00:05:54.171Z,100986.02
2024-01-24T00:08:24.714Z,100986.17
2024-01-24T00:10:54.906Z,100980.95
2024-01-24T00:13:22.912Z,100978.52
2024-01-24T00:15:50.994Z,100984.17
2024-01-24T00:18:19.062Z,100983.58
2024-01-24T00:20:47.103Z,100974.95
2024-01-24T00:23:14.990Z,100972.60
2024-01-24T00:25:42.932Z,100965.70
2024-01-24T00:28:10.824Z,100968.77
2024-01-24T00:30:38.785Z,100974.36
2024-01-24T00:33:06.640Z,100967.89
2024-01-24T00:35:34.591Z,100973.02
2024-01-24T00:38:02.571Z,100974.71
2024-01-24T00:40:30.527Z,100961.86
2024-01-24T00:42:58.347Z,100955.88
2024-01-24T00:45:26.998Z,100959.86
2024-01-24T00:47:54.903Z,100961.10
2024-01-24T00:50:23.006Z,100964.69
2024-01-24T00:52:53.649Z,100963.17
2024-01-24T00:55:21.613Z,100970.97
2024-01-24T00:57:49.416Z,100969.08
2024-01-24T01:00:18.096Z,100953.98
2024-01-24T01:02:45.924Z,100941.97
2024-01-24T01:05:13.809Z,100938.39
2024-01-24T01:07:41.867Z,100933.46
2024-01-24T01:10:10.582Z,100925.39
2024-01-24T01:12:38.686Z,100915.20
2024-01-24T01:15:07.435Z,100916.50
2024-01-24T01:17:35.348Z,100906.54
2024-01-24T01:20:04.564Z,100900.73
2024-01-24T01:22:34.512Z,100891.98
2024-01-24T01:25:02.650Z,100872.95
2024-01-24T01:27:30.554Z,100871.39
2024-01-24T01:30:00.842Z,100847.86
2024-01-24T01:32:28.833Z,100837.10
2024-01-24T01:34:57.142Z,100835.77
2024-01-24T01:37:25.262Z,100825.20
2024-01-24T01:39:53.613Z,100821.35
2024-01-24T01:42:21.623Z,100811.89
2024-01-24T01:44:49.576Z,100798.20
2024-01-24T01:47:18.253Z,100798.58
2024-01-24T01:49:47.156Z,100798.44
2024-01-24T01:52:17.368Z,100802.88
2024-01-24T01:54:46.109Z,100800.10
2024-01-24T01:57:17.871Z,100789.45
2024-01-24T01:59:46.461Z,100783.27
2024-01-24T02:02:15.326Z,100777.89
2024-01-24T02:04:43.371Z,100764.80
2024-01-24T02:07:11.381Z,100759.73
2024-01-24T02:09:39.505Z,100764.29
2024-01-24T02:12:07.681Z,100766.25
2024-01-24T02:14:35.525Z,100765.61
2024-01-24T02:17:03.677Z,100753.14
2024-01-24T02:19:31.812Z,100734.52
2024-01-24T02:22:00.009Z,100728.54
2024-01-24T02:24:28.233Z,100733.95
2024-01-24T02:26:56.402Z,100735.69
2024-01-24T02:29:24.806Z,100718.61
2024-01-24T02:31:52.741Z,100704.88
2024-01-24T02:34:20.837Z,100693.68
2024-01-24T02:36:48.888Z,100698.16
2024-01-24T02:39:16.979Z,100688.64
2024-01-24T02:41:44.920Z,100683.52
2024-01-24T02:44:12.902Z,100680.14
2024-01-24T02:46:40.854Z,100675.94
2024-01-24T02:49:08.876Z,100668.23
2024-01-24T02:51:37.063Z,100655.30
2024-01-24T02:54:05.846Z,100644.36
2024-01-24T02:56:34.984Z,100637.44
2024-01-24T02:59:02.844Z,100637.95
2024-01-24T03:01:30.850Z,100641.10
2024-01-24T03:03:58.916Z,100635.43
2024-01-24T03:06:27.020Z,100629.70
2024-01-24T03:08:59.373Z,100627.48
2024-01-24T03:11:27.698Z,100616.02
2024-01-24T03:13:55.770Z,100601.03
2024-01-24T03:16:23.569Z,100594.98
2024-01-24T03:18:53.176Z,100580.66
2024-01-24T03:21:21.533Z,100574.80
2024-01-24T03:23:49.490Z,100567.94
2024-01-24T03:26:18.374Z,100563.22
2024-01-24T03:28:46.699Z,100556.04
2024-01-24T03:31:15.029Z,100539.75
2024-01-24T03:33:43.766Z,100532.07
2024-01-24T03:36:12.265Z,100535.31
2024-01-24T03:38:40.518Z,100531.98
2024-01-24T03:41:08.450Z,100531.84
2024-01-24T03:43:41.011Z,100528.17
2024-01-24T03:46:09.451Z,100530.02
2024-01-24T03:48:37.451Z,100520.98
2024-01-24T03:51:09.208Z,100516.16
2024-01-24T03:53:37.293Z,100504.91
2024-01-24T03:56:05.377Z,100492.69
2024-01-24T03:58:33.227Z,100488.65
2024-01-24T04:01:01.172Z,100496.26
2024-01-24T04:03:29.257Z,100490.09
2024-01-24T04:05:57.231Z,100481.23
2024-01-24T04:08:25.146Z,100478.41
2024-01-24T04:10:53.081Z,100470.20
2024-01-24T04:13:21.444Z,100460.61
2024-01-24T04:15:49.359Z,100442.17
2024-01-24T04:18:17.544Z,100437.68
2024-01-24T04:20:45.564Z,100424.78
2024-01-24T04:23:13.439Z,100416.57
2024-01-24T04:25:41.334Z,100405.65
2024-01-24T04:28:10.527Z,100397.25
2024-01-24T04:30:41.483Z,100389.35
2024-01-24T04:33:09.647Z,100382.34
2024-01-24T04:35:37.669Z,100377.11
2024-01-24T04:38:05.543Z,100371.58
2024-01-24T04:40:34.841Z,100365.05
2024-01-24T04:43:03.137Z,100366.78
2024-01-24T04:45:33.421Z,100357.55
2024-01-24T04:48:01.937Z,100345.77
2024-01-24T04:50:29.916Z,100331.69
2024-01-24T04:52:57.791Z,100324.00
2024-01-24T04:55:25.605Z,100315.08
2024-01-24T04:57:53.804Z,100312.38
2024-01-24T05:00:21.759Z,100306.36
2024-01-24T05:02:49.839Z,100301.45
2024-01-24T05:05:17.856Z,100299.48
2024-01-24T05:07:45.974Z,100304.72
2024-01-24T05:10:13.989Z,100296.81
2024-01-24T05:12:42.068Z,100296.67
2024-01-24T05:15:11.419Z,100285.94
2024-01-24T05:17:40.857Z,100288.98
2024-01-24T05:20:10.346Z,100280.41
2024-01-24T05:22:38.280Z,100273.00
2024-01-24T05:25:06.691Z,100260.92
2024-01-24T05:27:34.657Z,100253.73
2024-01-24T05:30:12.125Z,100250.21
2024-01-24T05:32:46.223Z,100240.96
2024-01-24T05:35:14.443Z,100223.02
2024-01-24T05:37:42.300Z,100212.94
2024-01-24T05:40:10.750Z,100201.00
2024-01-24T05:42:39.403Z,100197.15
2024-01-24T05:45:08.105Z,100188.92
2024-01-24T05:47:36.091Z,100187.23
2024-01-24T05:50:05.571Z,100193.50
2024-01-24T05:52:33.663Z,100196.55
2024-01-24T05:55:01.588Z,100193.39
2024-01-24T05:57:29.739Z,100199.82
2024-01-24T05:59:57.712Z,100205.85
2024-01-24T06:02:25.692Z,100199.91
2024-01-24T06:04:53.964Z,100189.80
2024-01-24T06:07:22.385Z,100179.10
2024-01-24T06:09:50.827Z,100167.19
2024-01-24T06:12:18.817Z,100151.95
2024-01-24T06:14:46.825Z,100138.55
2024-01-24T06:17:14.743Z,100129.13
2024-01-24T06:19:44.409Z,100118.45
2024-01-24T06:22:12.590Z,100107.03
2024-01-24T06:24:41.286Z,100096.80
2024-01-24T06:27:12.270Z,100089.97
2024-01-24T06:30:16.340Z,100087.52
2024-01-24T06:32:28.741Z,100085.22
2024-01-24T06:34:56.794Z,100074.31
2024-01-24T06:37:24.681Z,100068.30
2024-01-24T06:39:52.709Z,100059.02
2024-01-24T06:42:21.414Z,100045.89
2024-01-24T06:44:49.678Z,100037.17
2024-01-24T06:47:17.856Z,100033.43
2024-01-24T06:49:45.877Z,100027.75
2024-01-24T06:52:13.801Z,100015.30
2024-01-24T06:54:41.771Z,100008.61
2024-01-24T06:57:09.734Z,99981.38
2024-01-24T06:59:38.228Z,99960.70
2024-01-24T07:02:07.566Z,99939.69
2024-01-24T07:04:35.600Z,99915.48
2024-01-24T07:07:03.850Z,99899.33
2024-01-24T07:09:31.826Z,99894.97
2024-01-24T07:11:59.632Z,99870.48
2024-01-24T07:14:27.471Z,99852.45
2024-01-24T07:16:55.272Z,99839.73
2024-01-24T07:19:23.140Z,99829.21
2024-01-24T07:21:51.100Z,99830.13
2024-01-24T07:24:18.988Z,99820.56
2024-01-24T07:26:46.888Z,99822.38
2024-01-24T07:29:16.118Z,99822.07
2024-01-24T07:31:43.919Z,99817.92
2024-01-24T07:34:13.445Z,99811.27
2024-01-24T07:36:43.908Z,99812.61
2024-01-24T07:39:11.948Z,99804.29
2024-01-24T07:41:39.866Z,99804.30
2024-01-24T07:44:07.779Z,99798.84
2024-01-24T07:46:39.846Z,99784.35
2024-01-24T07:49:08.015Z,99769.08
2024-01-24T07:51:36.059Z,99757.91
2024-01-24T07:54:04.897Z,99742.80
2024-01-24T07:56:32.980Z,99726.23
2024-01-24T07:59:02.516Z,99717.63
2024-01-24T08:01:30.972Z,99702.08
2024-01-24T08:04:02.293Z,99689.66
2024-01-24T08:06:30.508Z,99688.02
2024-01-24T08:08:58.517Z,99682.81
2024-01-24T08:11:26.419Z,99674.08
2024-01-24T08:13:54.653Z,99683.08
2024-01-24T08:16:22.584Z,99675.58
2024-01-24T08:18:50.701Z,99683.23
2024-01-24T08:21:18.798Z,99674.89
2024-01-24T08:23:49.853Z,99667.77
2024-01-24T08:26:20.340Z,99656.76
2024-01-24T08:28:51.483Z,99649.14
2024-01-24T08:31:19.275Z,99642.48
2024-01-24T08:33:50.483Z,99628.50
2024-01-24T08:36:20.581Z,99623.88
2024-01-24T08:38:50.415Z,99609.66
2024-01-24T08:41:18.999Z,99615.10
2024-01-24T08:43:47.092Z,99593.13
2024-01-24T08:46:15.369Z,99598.73
2024-01-24T08:48:43.791Z,99609.72
2024-01-24T08:51:13.638Z,99598.36
2024-01-24T08:53:41.709Z,99598.94
2024-01-24T08:56:11.518Z,99593.78
2024-01-24T08:58:39.728Z,99604.14
2024-01-24T09:01:07.917Z,99590.91
2024-01-24T09:03:36.008Z,99589.98
2024-01-24T09:06:05.588Z,99588.67
2024-01-24T09:08:34.167Z,99583.69
2024-01-24T09:11:02.203Z,99580.89
2024-01-24T09:13:31.236Z,99578.23
2024-01-24T09:15:59.788Z,99580.49
2024-01-24T09:18:29.284Z,99575.96
2024-01-24T09:20:57.788Z,99566.15
2024-01-24T09:23:26.435Z,99562.83
2024-01-24T09:25:54.333Z,99558.38
2024-01-24T09:28:22.374Z,99544.46
2024-01-24T09:30:50.781Z,99532.94
2024-01-24T09:33:19.078Z,99528.95
2024-01-24T09:35:47.970Z,99522.79
2024-01-24T09:38:16.830Z,99514.05
2024-01-24T09:40:44.972Z,99502.11
2024-01-24T09:43:15.300Z,99491.68
2024-01-24T09:45:44.943Z,99483.80
2024-01-24T09:48:13.300Z,99477.09
2024-01-24T09:50:42.477Z,99485.36
2024-01-24T09:53:16.008Z,99486.91
2024-01-24T09:55:44.965Z,99471.98
2024-01-24T09:58:14.636Z,99463.94
2024-01-24T10:00:46.058Z,99457.60
2024-01-24T10:03:14.747Z,99469.25
2024-01-24T10:05:46.085Z,99467.82
2024-01-24T10:08:14.135Z,99457.26
2024-01-24T10:10:44.245Z,99457.11
2024-01-24T10:13:12.980Z,99452.95
2024-01-24T10:15:41.146Z,99458.90
2024-01-24T10:18:09.708Z,99457.77
2024-01-24T10:20:37.860Z,99449.86
2024-01-24T10:23:05.824Z,99435.75
2024-01-24T10:25:33.809Z,99434.95
2024-01-24T10:28:02.128Z,99432.15
2024-01-24T10:30:30.703Z,99437.12
2024-01-24T10:32:59.992Z,99428.27
2024-01-24T10:35:30.956Z,99414.98
2024-01-24T10:37:59.402Z,99414.33
2024-01-24T10:40:30.075Z,99416.53
2024-01-24T10:43:06.916Z,99414.53
2024-01-24T10:45:42.839Z,99406.63
2024-01-24T10:48:15.390Z,99392.15
2024-01-24T10:50:48.809Z,99387.60
2024-01-24T10:53:21.054Z,99385.60
2024-01-24T10:55:51.942Z,99377.36
2024-01-24T10:58:21.832Z,99376.91
2024-01-24T11:00:52.701Z,99385.72
2024-01-24T11:03:21.181Z,99377.32
2024-01-24T11:05:55.946Z,99369.79
2024-01-24T11:08:52.189Z,99364.60
2024-01-24T11:11:24.266Z,99378.95
2024-01-24T11:13:53.513Z,99384.24
2024-01-24T11:16:48.738Z,99380.40
2024-01-24T11:19:22.094Z,99379.77
2024-01-24T11:21:52.162Z,99385.52
2024-01-24T11:24:45.230Z,99389.74
2024-01-24T11:27:26.636Z,99384.69
2024-01-24T11:29:57.260Z,99389.09
2024-01-24T11:32:48.737Z,99389.13
2024-01-24T11:35:32.120Z,99378.16
2024-01-24T11:38:13.063Z,99377.87
2024-01-24T11:40:52.565Z,99371.16
2024-01-24T11:43:26.655Z,99376.45
2024-01-24T11:46:09.905Z,99381.07
2024-01-24T11:48:41.013Z,99380.80
2024-01-24T11:51:11.308Z,99379.64
2024-01-24T11:53:39.578Z,99383.22
2024-01-24T11:56:11.651Z,99379.70
2024-01-24T11:58:39.623Z,99380.07
2024-01-24T12:01:14.970Z,99374.83
2024-01-24T12:03:51.154Z,99350.98
2024-01-24T12:06:20.772Z,99346.23
2024-01-24T12:08:50.743Z,99350.98
2024-01-24T12:11:20.040Z,99354.69
2024-01-24T12:13:48.663Z,99356.20
2024-01-24T12:16:16.642Z,99355.17
2024-01-24T12:18:45.221Z,99351.27
2024-01-24T12:21:13.861Z,99349.20
2024-01-24T12:23:43.391Z,99344.11
2024-01-24T12:26:11.651Z,99346.80
2024-01-24T12:28:39.856Z,99347.96
2024-01-24T12:31:09.418Z,99351.16
2024-01-24T12:33:38.141Z,99353.52
2024-01-24T12:36:07.334Z,99347.38
2024-01-24T12:38:37.494Z,99349.58
2024-01-24T12:41:05.863Z,99343.45
2024-01-24T12:43:34.092Z,99345.30
2024-01-24T12:46:07.215Z,99349.16
2024-01-24T12:48:36.815Z,99348.77
2024-01-24T12:51:05.965Z,99348.58
2024-01-24T12:53:34.317Z,99337.19
2024-01-24T12:56:03.118Z,99333.26
2024-01-24T12:58:33.243Z,99325.83
2024-01-24T13:01:01.625Z,99335.33
2024-01-24T13:03:30.472Z,99340.23
2024-01-24T13:05:59.807Z,99345.30
2024-01-24T13:08:28.486Z,99348.71
2024-01-24T13:10:57.591Z,99342.46
2024-01-24T13:13:25.694Z,99344.02
2024-01-24T13:15:55.140Z,99348.43
2024-01-24T13:18:24.291Z,99353.36
2024-01-24T13:20:52.458Z,99361.85
2024-01-24T13:23:20.508Z,99372.89
2024-01-24T13:25:48.466Z,99377.83
2024-01-24T13:28:16.622Z,99384.61
2024-01-24T13:30:45.511Z,99389.20
2024-01-24T13:33:13.739Z,99396.33
2024-01-24T13:35:42.122Z,99400.05
2024-01-24T13:38:10.406Z,99400.23
2024-01-24T13:40:39.552Z,99393.30
2024-01-24T13:43:08.224Z,99396.37
2024-01-24T13:45:39.664Z,99388.25
2024-01-24T13:48:10.191Z,99379.30
2024-01-24T13:50:44.122Z,99379.30
2024-01-24T13:53:12.723Z,99363.41
2024-01-24T13:55:41.493Z,99371.39
2024-01-24T13:58:09.849Z,99372.58
2024-01-24T14:00:38.143Z,99353.79
2024-01-24T14:03:06.849Z,99352.61
2024-01-24T14:05:35.862Z,99364.45
2024-01-24T14:08:07.757Z,99375.98
2024-01-24T14:10:35.712Z,99399.52
2024-01-24T14:13:06.451Z,99377.02
2024-01-24T14:15:36.884Z,99375.81
2024-01-24T14:18:06.788Z,99383.27
2024-01-24T14:20:35.212Z,99379.39
2024-01-24T14:23:03.498Z,99376.00
2024-01-24T14:25:31.388Z,99383.11
2024-01-24T14:27:59.804Z,99384.29
2024-01-24T14:30:27.903Z,99371.59
2024-01-24T14:32:58.316Z,99359.89
2024-01-24T14:35:26.556Z,99370.23
2024-01-24T14:37:55.123Z,99385.83
2024-01-24T14:40:23.184Z,99384.96
2024-01-24T14:42:51.363Z,99374.14
2024-01-24T14:45:19.467Z,99381.41
2024-01-24T14:47:48.310Z,99385.83
2024-01-24T14:50:16.564Z,99394.96
2024-01-24T14:52:44.624Z,99389.56
2024-01-24T14:55:12.702Z,99388.03
2024-01-24T14:57:41.338Z,99390.07
2024-01-24T15:00:13.857Z,99394.46
2024-01-24T15:02:41.827Z,99399.20
2024-01-24T15:05:10.623Z,99402.09
2024-01-24T15:07:39.690Z,99401.91
2024-01-24T15:10:09.335Z,99399.37
2024-01-24T15:12:38.243Z,99400.55
2024-01-24T15:15:08.778Z,99399.54
2024-01-24T15:17:37.514Z,99407.84
2024-01-24T15:20:06.999Z,99412.74
2024-01-24T15:22:36.667Z,99421.21
2024-01-24T15:25:07.370Z,99420.03
2024-01-24T15:27:35.775Z,99426.46
2024-01-24T15:30:07.394Z,99413.94
2024-01-24T15:32:35.891Z,99412.06
2024-01-24T15:35:06.118Z,99410.55
2024-01-24T15:37:34.683Z,99414.44
2024-01-24T15:40:08.614Z,99422.73
2024-01-24T15:42:43.297Z,99414.26
2024-01-24T15:45:13.947Z,99418.50
2024-01-24T15:47:42.411Z,99421.70
2024-01-24T15:50:11.427Z,99414.59
2024-01-24T15:52:41.834Z,99417.14
2024-01-24T15:55:10.837Z,99415.45
2024-01-24T15:57:39.381Z,99413.58
2024-01-24T16:00:11.353Z,99420.70
2024-01-24T16:02:41.474Z,99414.94
2024-01-24T16:05:25.178Z,99409.36
2024-01-24T16:07:53.535Z,99415.97
2024-01-24T16:10:21.611Z,99408.17
2024-01-24T16:12:50.125Z,99410.89
2024-01-24T16:15:18.336Z,99417.31
2024-01-24T16:17:46.228Z,99421.73
2024-01-24T16:20:14.523Z,99422.92
2024-01-24T16:22:50.930Z,99427.48
2024-01-24T16:25:25.225Z,99437.30
2024-01-24T16:27:54.498Z,99434.08
2024-01-24T16:30:26.975Z,99437.11
2024-01-24T16:32:56.021Z,99441.02
2024-01-24T16:35:25.056Z,99441.02
2024-01-24T16:37:53.212Z,99439.32
2024-01-24T16:40:21.370Z,99443.71
2024-01-24T16:42:50.573Z,99440.66
2024-01-24T16:45:18.774Z,99439.48
2024-01-24T16:47:46.794Z,99436.25
2024-01-24T16:50:14.885Z,99437.44
2024-01-24T16:52:45.323Z,99431.68
2024-01-24T16:55:13.819Z,99429.13
2024-01-24T16:57:41.750Z,99433.20
2024-01-24T17:00:10.686Z,99425.59
2024-01-24T17:02:45.937Z,99426.75
2024-01-24T17:05:18.786Z,99422.69
2024-01-24T17:07:47.345Z,99419.96
2024-01-24T17:10:15.851Z,99422.34
2024-01-24T17:12:43.761Z,99419.96
2024-01-24T17:15:14.829Z,99414.19
2024-01-24T17:17:46.200Z,99416.05
2024-01-24T17:20:14.263Z,99413.02
2024-01-24T17:22:42.216Z,99410.11
2024-01-24T17:25:11.777Z,99411.98
2024-01-24T17:27:39.990Z,99415.39
2024-01-24T17:30:09.039Z,99416.23
2024-01-24T17:32:37.010Z,99417.41
2024-01-24T17:35:06.033Z,99417.75
2024-01-24T17:37:34.575Z,99422.33
2024-01-24T17:40:02.978Z,99422.30
2024-01-24T17:42:31.523Z,99419.92
2024-01-24T17:44:59.680Z,99422.63
2024-01-24T17:47:27.985Z,99422.30
2024-01-24T17:49:56.130Z,99421.79
2024-01-24T17:52:24.081Z,99415.02
2024-01-24T17:54:52.572Z,99420.09
2024-01-24T17:57:20.532Z,99422.13
2024-01-24T17:59:49.419Z,99427.55
2024-01-24T18:02:18.314Z,99425.52
2024-01-24T18:04:46.208Z,99428.24
2024-01-24T18:07:14.268Z,99427.39
2024-01-24T18:09:43.932Z,99427.91
2024-01-24T18:12:12.545Z,99430.12
2024-01-24T18:14:42.446Z,99429.27
2024-01-24T18:17:10.358Z,99430.80
2024-01-24T18:19:38.408Z,99422.48
2024-01-24T18:22:06.756Z,99419.45
2024-01-24T18:24:34.693Z,99424.03
2024-01-24T18:27:02.629Z,99420.64
2024-01-24T18:29:30.561Z,99421.84
2024-01-24T18:31:59.662Z,99412.36
2024-01-24T18:34:28.309Z,99416.59
2024-01-24T18:36:56.548Z,99421.85
2024-01-24T18:39:24.561Z,99411.52
2024-01-24T18:41:52.548Z,99412.73
2024-01-24T18:44:20.518Z,99404.95
2024-01-24T18:46:51.367Z,99413.93
2024-01-24T18:49:20.258Z,99408.69
2024-01-24T18:51:48.326Z,99426.12
2024-01-24T18:54:17.516Z,99422.57
2024-01-24T18:56:45.727Z,99431.38
2024-01-24T18:59:13.805Z,99428.48
2024-01-24T19:01:42.215Z,99432.90
2024-01-24T19:04:10.461Z,99435.44
2024-01-24T19:06:39.263Z,99434.09
2024-01-24T19:09:08.750Z,99438.81
2024-01-24T19:11:37.588Z,99431.38
2024-01-24T19:14:06.404Z,99431.55
2024-01-24T19:16:34.598Z,99430.19
2024-01-24T19:19:02.746Z,99433.73
2024-01-24T19:21:30.843Z,99432.40
2024-01-24T19:23:59.175Z,99431.20
2024-01-24T19:26:32.773Z,99433.07
2024-01-24T19:29:00.844Z,99433.06
2024-01-24T19:31:28.932Z,99433.73
2024-01-24T19:33:56.869Z,99430.02
2024-01-24T19:36:24.936Z,99423.59
2024-01-24T19:38:52.963Z,99422.91
2024-01-24T19:41:22.990Z,99424.27
2024-01-24T19:43:51.590Z,99427.83
2024-01-24T19:46:21.067Z,99427.65
2024-01-24T19:48:49.484Z,99428.49
2024-01-24T19:51:17.504Z,99428.84
2024-01-24T19:53:46.570Z,99428.15
2024-01-24T19:56:14.468Z,99434.77
2024-01-24T19:58:42.299Z,99429.18
2024-01-24T20:01:10.298Z,99428.49
2024-01-24T20:03:38.773Z,99434.25
2024-01-24T20:06:07.155Z,99432.38
2024-01-24T20:08:37.993Z,99437.30
2024-01-24T20:11:05.892Z,99443.05
2024-01-24T20:13:35.973Z,99438.64
2024-01-24T20:16:04.674Z,99435.44
2024-01-24T20:18:32.732Z,99435.43
2024-01-24T20:21:01.118Z,99438.14
2024-01-24T20:23:30.861Z,99442.88
2024-01-24T20:26:00.220Z,99437.30
2024-01-24T20:28:28.284Z,99436.78
2024-01-24T20:30:56.267Z,99437.98
2024-01-24T20:33:24.320Z,99440.68
2024-01-24T20:35:54.260Z,99440.02
2024-01-24T20:38:22.820Z,99440.17
2024-01-24T20:40:53.353Z,99442.55
2024-01-24T20:43:21.255Z,99438.15
2024-01-24T20:45:49.349Z,99430.02
2024-01-24T20:48:18.428Z,99422.57
2024-01-24T20:50:46.450Z,99427.32
2024-01-24T20:53:19.042Z,99425.96
2024-01-24T20:55:46.986Z,99428.31
2024-01-24T20:58:15.085Z,99432.38
2024-01-24T21:00:43.652Z,99440.84
2024-01-24T21:03:11.764Z,99439.16
2024-01-24T21:05:40.180Z,99440.18
2024-01-24T21:08:09.343Z,99440.52
2024-01-24T21:10:42.082Z,99442.04
2024-01-24T21:13:16.705Z,99444.23
2024-01-24T21:15:44.806Z,99441.69
2024-01-24T21:18:12.853Z,99431.36
2024-01-24T21:20:42.516Z,99436.42
2024-01-24T21:23:10.576Z,99436.42
2024-01-24T21:25:38.586Z,99429.82
2024-01-24T21:28:08.901Z,99424.23
2024-01-24T21:30:37.588Z,99434.73
2024-01-24T21:33:05.816Z,99434.23
2024-01-24T21:35:33.848Z,99423.74
2024-01-24T21:38:01.807Z,99428.30
2024-01-24T21:40:29.777Z,99435.09
2024-01-24T21:42:57.705Z,99438.80
2024-01-24T21:45:25.713Z,99445.09
2024-01-24T21:47:53.698Z,99449.82
2024-01-24T21:50:21.657Z,99446.93
2024-01-24T21:52:49.522Z,99459.30
2024-01-24T21:55:18.028Z,99448.48
2024-01-24T21:57:51.460Z,99447.80
2024-01-24T22:00:20.694Z,99447.27
2024-01-24T22:02:49.246Z,99436.61
2024-01-24T22:05:19.066Z,99448.27
2024-01-24T22:07:51.526Z,99450.15
2024-01-24T22:10:19.951Z,99455.90
2024-01-24T22:12:49.119Z,99467.24
2024-01-24T22:15:18.434Z,99470.27
2024-01-24T22:17:46.341Z,99470.27
2024-01-24T22:20:14.748Z,99474.96
2024-01-24T22:25:17.354Z,99466.81
2024-01-24T22:27:45.507Z,99469.84
2024-01-24T22:30:15.208Z,99469.31
2024-01-24T22:32:44.041Z,99476.09
2024-01-24T22:35:12.596Z,99480.64
2024-01-24T22:37:40.685Z,99487.40
2024-01-24T22:40:09.138Z,99485.02
2024-01-24T22:42:37.118Z,99480.59
2024-01-24T22:45:05.825Z,99475.33
2024-01-24T22:47:33.613Z,99469.88
2024-01-24T22:50:01.821Z,99471.54
2024-01-24T22:52:29.865Z,99469.32
2024-01-24T22:54:57.831Z,99468.44
2024-01-24T22:57:25.900Z,99472.83
2024-01-24T22:59:55.988Z,99474.35
2024-01-24T23:02:25.753Z,99474.86
2024-01-24T23:04:56.186Z,99474.49
2024-01-24T23:07:24.118Z,99473.15
2024-01-24T23:09:52.190Z,99464.02
2024-01-24T23:12:20.331Z,99469.77
2024-01-24T23:14:48.536Z,99472.81
2024-01-24T23:17:16.476Z,99470.45
2024-01-24T23:19:46.432Z,99463.34
2024-01-24T23:22:14.455Z,99461.47
2024-01-24T23:24:42.608Z,99463.34
2024-01-24T23:27:10.805Z,99456.75
2024-01-24T23:29:38.771Z,99449.48
2024-01-24T23:32:07.434Z,99450.17
2024-01-24T23:34:35.723Z,99443.91
2024-01-24T23:37:04.119Z,99437.84
2024-01-24T23:39:32.209Z,99450.35
2024-01-24T23:42:00.261Z,99449.02
2024-01-24T23:44:28.150Z,99453.08
2024-01-24T23:46:56.088Z,99449.54
2024-01-24T23:49:24.271Z,99447.85
2024-01-24T23:51:52.740Z,99450.88
2024-01-24T23:54:20.748Z,99447.15
2024-01-24T23:56:48.612Z,99454.56
2024-01-24T23:59:16.685Z,99460.61
